createdAt,value
2018-05-10T00:00:15.620Z,18.85
2018-05-10T00:02:43.238Z,18.58
2018-05-10T00:05:10.859Z,18.42
2018-05-10T00:07:38.557Z,18.33
2018-05-10T00:10:06.211Z,18.23
2018-05-10T00:12:33.855Z,18.20
2018-05-10T00:15:01.591Z,18.09
2018-05-10T00:17:29.305Z,18.10
2018-05-10T00:19:57.037Z,17.92
2018-05-10T00:22:24.705Z,17.82
2018-05-10T00:24:52.371Z,17.80
2018-05-10T00:27:20.029Z,17.77
2018-05-10T00:29:47.721Z,17.77
2018-05-10T00:32:15.341Z,17.71
2018-05-10T00:34:43.011Z,17.85
2018-05-10T00:37:10.630Z,17.71
2018-05-10T00:39:38.281Z,17.61
2018-05-10T00:42:05.981Z,17.72
2018-05-10T00:44:33.650Z,17.70
2018-05-10T00:47:01.362Z,17.58
2018-05-10T00:49:28.993Z,17.60
2018-05-10T00:51:56.601Z,17.57
2018-05-10T00:54:35.957Z,17.59
2018-05-10T00:57:03.578Z,17.46
2018-05-10T00:59:31.301Z,17.57
2018-05-10T01:01:59.021Z,17.61
2018-05-10T01:04:26.633Z,17.55
2018-05-10T01:06:54.270Z,17.43
2018-05-10T01:09:21.920Z,17.37
2018-05-10T01:11:49.593Z,17.27
2018-05-10T01:14:17.225Z,17.20
2018-05-10T01:16:44.878Z,17.18
2018-05-10T01:19:12.528Z,17.13
2018-05-10T01:21:40.117Z,17.07
2018-05-10T01:24:07.721Z,17.10
2018-05-10T01:26:35.314Z,17.12
2018-05-10T01:29:02.947Z,17.10
2018-05-10T01:31:30.565Z,17.08
2018-05-10T01:33:58.153Z,17.02
2018-05-10T01:36:25.754Z,16.99
2018-05-10T01:38:53.373Z,17.06
2018-05-10T01:41:20.957Z,17.09
2018-05-10T01:43:48.557Z,17.00
2018-05-10T01:46:16.181Z,16.99
2018-05-10T01:48:43.773Z,17.09
2018-05-10T01:51:11.353Z,17.17
2018-05-10T01:53:38.993Z,17.26
2018-05-10T01:56:06.586Z,17.31
2018-05-10T01:58:34.182Z,17.22
2018-05-10T02:01:01.773Z,17.17
2018-05-10T02:03:29.397Z,17.25
2018-05-10T02:05:56.985Z,17.19
2018-05-10T02:08:24.569Z,17.22
2018-05-10T02:10:52.205Z,17.22
2018-05-10T02:13:19.793Z,17.30
2018-05-10T02:15:47.392Z,17.36
2018-05-10T02:18:15.073Z,17.48
2018-05-10T02:20:42.677Z,17.35
2018-05-10T02:23:10.285Z,17.35
2018-05-10T02:25:37.928Z,17.23
2018-05-10T02:28:05.517Z,17.29
2018-05-10T02:30:33.122Z,17.32
2018-05-10T02:33:00.751Z,17.27
2018-05-10T02:35:28.376Z,17.29
2018-05-10T02:37:55.978Z,17.30
2018-05-10T02:40:23.583Z,17.26
2018-05-10T02:42:51.207Z,17.28
2018-05-10T02:45:18.801Z,17.34
2018-05-10T02:47:46.421Z,17.26
2018-05-10T02:50:14.033Z,17.40
2018-05-10T02:52:41.625Z,17.29
2018-05-10T02:55:09.285Z,17.29
2018-05-10T02:57:37.002Z,17.21
2018-05-10T03:00:04.721Z,17.25
2018-05-10T03:02:32.429Z,17.12
2018-05-10T03:05:00.138Z,17.07
2018-05-10T03:07:27.817Z,17.08
2018-05-10T03:09:55.462Z,17.13
2018-05-10T03:12:23.123Z,17.03
2018-05-10T03:14:50.785Z,17.02
2018-05-10T03:17:18.483Z,17.05
2018-05-10T03:19:46.170Z,16.96
2018-05-10T03:22:13.873Z,17.09
2018-05-10T03:24:41.513Z,17.14
2018-05-10T03:27:09.124Z,17.20
2018-05-10T03:29:36.785Z,17.25
2018-05-10T03:32:04.465Z,17.30
2018-05-10T03:34:32.080Z,17.20
2018-05-10T03:36:59.713Z,17.23
2018-05-10T03:39:27.297Z,17.21
2018-05-10T03:41:54.893Z,17.29
2018-05-10T03:44:22.561Z,17.25
2018-05-10T03:46:50.164Z,17.26
2018-05-10T03:49:17.853Z,17.28
2018-05-10T03:51:45.446Z,17.19
2018-05-10T03:54:13.070Z,17.19
2018-05-10T03:56:40.694Z,17.25
2018-05-10T03:59:08.281Z,17.33
2018-05-10T04:01:35.868Z,17.21
2018-05-10T04:07:15.492Z,17.30
2018-05-10T04:09:54.647Z,17.32
2018-05-10T04:12:22.236Z,17.31
2018-05-10T04:14:49.854Z,17.34
2018-05-10T04:17:17.444Z,17.47
2018-05-10T04:19:45.036Z,17.57
2018-05-10T04:22:12.705Z,17.57
2018-05-10T04:24:40.309Z,17.65
2018-05-10T04:27:07.929Z,17.67
2018-05-10T04:29:35.521Z,17.83
2018-05-10T04:32:03.149Z,17.86
2018-05-10T04:34:30.837Z,17.78
2018-05-10T04:36:58.441Z,17.82
2018-05-10T04:39:26.025Z,17.89
2018-05-10T04:41:53.665Z,17.95
2018-05-10T04:44:21.249Z,18.09
2018-05-10T04:46:48.901Z,18.30
2018-05-10T04:49:16.533Z,18.35
2018-05-10T04:51:44.163Z,18.38
2018-05-10T04:54:11.789Z,18.39
2018-05-10T04:56:39.385Z,18.40
2018-05-10T04:59:06.977Z,18.46
2018-05-10T05:01:34.603Z,18.53
2018-05-10T05:04:02.193Z,18.65
2018-05-10T05:06:29.798Z,18.60
2018-05-10T05:08:57.432Z,18.67
2018-05-10T05:11:25.045Z,18.73
2018-05-10T05:13:52.628Z,18.75
2018-05-10T05:16:20.275Z,18.76
2018-05-10T05:18:47.864Z,18.79
2018-05-10T05:21:15.453Z,18.75
2018-05-10T05:23:43.097Z,18.90
2018-05-10T05:26:10.690Z,18.81
2018-05-10T05:28:38.317Z,18.88
2018-05-10T05:31:05.912Z,19.00
2018-05-10T05:33:33.513Z,19.01
2018-05-10T05:36:01.134Z,19.02
2018-05-10T05:38:28.730Z,19.17
2018-05-10T05:40:56.395Z,19.34
2018-05-10T05:43:24.036Z,19.29
2018-05-10T05:45:51.641Z,19.42
2018-05-10T05:48:19.311Z,19.54
2018-05-10T05:50:46.910Z,19.40
2018-05-10T05:53:14.501Z,19.51
2018-05-10T05:55:42.133Z,19.65
2018-05-10T05:58:09.721Z,19.69
2018-05-10T06:00:37.367Z,19.78
2018-05-10T06:03:04.997Z,19.86
2018-05-10T06:05:32.582Z,19.81
2018-05-10T06:08:00.165Z,19.94
2018-05-10T06:10:27.821Z,20.11
2018-05-10T06:12:55.439Z,20.14
2018-05-10T06:15:23.102Z,20.28
2018-05-10T06:17:50.777Z,20.31
2018-05-10T06:20:18.435Z,20.57
2018-05-10T06:22:46.018Z,20.63
2018-05-10T06:25:13.719Z,20.58
2018-05-10T06:27:41.286Z,20.68
2018-05-10T06:30:08.891Z,20.95
2018-05-10T06:32:36.567Z,20.86
2018-05-10T06:35:05.093Z,21.26
2018-05-10T06:37:32.698Z,21.90
2018-05-10T06:40:00.320Z,21.79
2018-05-10T06:42:27.926Z,21.94
2018-05-10T06:44:55.532Z,21.55
2018-05-10T06:47:23.319Z,21.47
2018-05-10T06:49:51.022Z,21.53
2018-05-10T06:52:18.761Z,21.68
2018-05-10T06:54:46.433Z,21.54
2018-05-10T06:57:14.190Z,21.60
2018-05-10T06:59:41.918Z,21.62
2018-05-10T07:02:09.630Z,21.66
2018-05-10T07:04:37.300Z,21.32
2018-05-10T07:07:04.921Z,21.27
2018-05-10T07:09:32.695Z,21.48
2018-05-10T07:12:00.373Z,21.70
2018-05-10T07:14:28.025Z,22.04
2018-05-10T07:16:55.709Z,22.08
2018-05-10T07:19:23.377Z,22.15
2018-05-10T07:21:50.973Z,22.12
2018-05-10T07:24:18.609Z,22.01
2018-05-10T07:26:46.202Z,22.47
2018-05-10T07:29:13.789Z,23.03
2018-05-10T07:31:41.398Z,23.35
2018-05-10T07:34:08.999Z,23.19
2018-05-10T07:36:36.645Z,23.18
2018-05-10T07:39:04.362Z,22.87
2018-05-10T07:41:32.043Z,22.59
2018-05-10T07:43:59.720Z,22.47
2018-05-10T07:46:27.379Z,22.45
2018-05-10T07:48:55.006Z,22.54
2018-05-10T07:51:22.677Z,21.97
2018-05-10T07:53:50.366Z,22.25
2018-05-10T07:56:18.010Z,22.10
2018-05-10T07:58:45.630Z,22.71
2018-05-10T08:01:13.250Z,21.99
2018-05-10T08:03:40.894Z,22.34
2018-05-10T08:06:08.591Z,22.35
2018-05-10T08:08:36.306Z,22.17
2018-05-10T08:11:03.978Z,22.11
2018-05-10T08:13:31.674Z,22.40
2018-05-10T08:15:59.371Z,22.10
2018-05-10T08:18:27.059Z,22.55
2018-05-10T08:20:54.857Z,22.60
2018-05-10T08:23:22.454Z,22.41
2018-05-10T08:25:50.125Z,22.68
2018-05-10T08:28:17.843Z,22.40
2018-05-10T08:30:45.518Z,22.51
2018-05-10T08:33:13.202Z,22.75
2018-05-10T08:35:40.942Z,22.68
2018-05-10T08:38:08.598Z,22.97
2018-05-10T08:40:36.272Z,22.77
2018-05-10T08:43:03.978Z,23.21
2018-05-10T08:45:31.673Z,23.05
2018-05-10T08:47:59.345Z,23.32
2018-05-10T08:50:27.054Z,22.98
2018-05-10T08:52:54.673Z,23.68
2018-05-10T08:55:22.377Z,23.93
2018-05-10T08:57:49.987Z,24.10
2018-05-10T09:00:17.598Z,24.54
2018-05-10T09:02:45.246Z,24.75
2018-05-10T09:05:12.871Z,24.28
2018-05-10T09:07:40.509Z,24.53
2018-05-10T09:10:08.159Z,25.03
2018-05-10T09:12:35.754Z,25.43
2018-05-10T09:15:03.352Z,25.73
2018-05-10T09:17:31.066Z,25.89
2018-05-10T09:19:58.649Z,25.67
2018-05-10T09:22:26.260Z,25.31
2018-05-10T09:24:53.857Z,25.91
2018-05-10T09:27:21.489Z,26.11
2018-05-10T09:29:49.081Z,26.65
2018-05-10T09:32:16.677Z,27.14
2018-05-10T09:34:44.289Z,27.10
2018-05-10T09:37:11.885Z,27.44
2018-05-10T09:39:39.518Z,27.73
2018-05-10T09:42:07.110Z,27.71
2018-05-10T09:44:34.697Z,26.91
2018-05-10T09:47:02.290Z,26.10
2018-05-10T09:49:29.881Z,26.78
2018-05-10T09:51:57.552Z,26.56
2018-05-10T09:54:25.142Z,26.09
2018-05-10T09:56:52.727Z,26.29
2018-05-10T09:59:20.375Z,25.56
2018-05-10T10:01:47.960Z,25.13
2018-05-10T10:04:15.589Z,24.83
2018-05-10T10:06:43.210Z,24.60
2018-05-10T10:09:10.801Z,24.34
2018-05-10T10:11:38.440Z,23.58
2018-05-10T10:14:06.022Z,23.44
2018-05-10T10:16:33.704Z,23.29
2018-05-10T10:19:01.398Z,23.16
2018-05-10T10:21:29.031Z,22.88
2018-05-10T10:23:56.721Z,22.86
2018-05-10T10:26:24.523Z,22.95
2018-05-10T10:28:52.149Z,22.48
2018-05-10T10:31:19.777Z,22.15
2018-05-10T10:33:47.440Z,21.52
2018-05-10T10:36:15.066Z,21.18
2018-05-10T10:38:42.709Z,20.84
2018-05-10T10:41:10.450Z,20.74
2018-05-10T10:43:38.077Z,20.67
2018-05-10T10:46:05.778Z,20.64
2018-05-10T10:48:33.458Z,20.37
2018-05-10T10:51:01.097Z,20.33
2018-05-10T10:53:28.741Z,20.38
2018-05-10T10:55:56.422Z,20.41
2018-05-10T10:58:24.045Z,20.38
2018-05-10T11:00:51.697Z,20.27
2018-05-10T11:03:19.386Z,20.22
2018-05-10T11:05:47.206Z,19.68
2018-05-10T11:08:14.905Z,19.12
2018-05-10T11:10:42.501Z,19.06
2018-05-10T11:13:10.090Z,18.99
2018-05-10T11:15:37.729Z,18.74
2018-05-10T11:18:05.326Z,18.55
2018-05-10T11:20:32.914Z,18.32
2018-05-10T11:23:00.590Z,18.27
2018-05-10T11:25:28.239Z,18.36
2018-05-10T11:27:55.866Z,18.38
2018-05-10T11:30:23.485Z,18.35
2018-05-10T11:32:51.150Z,18.46
2018-05-10T11:35:18.911Z,18.52
2018-05-10T11:37:46.752Z,18.25
2018-05-10T11:40:14.396Z,17.47
2018-05-10T11:42:42.042Z,16.75
2018-05-10T11:45:09.770Z,16.50
2018-05-10T11:47:37.402Z,15.98
2018-05-10T11:50:04.986Z,15.82
